Time;durP1;ratioP1;P1;durP2;ratioP2;P2;SDS_P1;SDS_P2;PMS_P1;PMS_P2;Temp;Humidity;BMP_temperature;BMP_pressure;BME280_temperature;BME280_humidity;BME280_pressure;Samples;Min_cycle;Max_cycle;Signal;HPM_P1;HPM_P2
2022/04/17 00:00:15;;;;;;;4.73;3.10;;;10.50;47.00;;;;;;5109607;28;20727;-81
2022/04/17 00:02:41;;;;;;;4.17;3.23;;;10.30;47.60;;;;;;5075517;28;20186;-81
2022/04/17 00:05:07;;;;;;;11.00;3.30;;;10.30;48.40;;;;;;5098212;28;20594;-81
2022/04/17 00:07:33;;;;;;;3.30;3.00;;;10.30;48.00;;;;;;5094942;28;20188;-81
2022/04/17 00:10:00;;;;;;;3.77;3.20;;;10.40;47.60;;;;;;5082129;28;20210;-81
2022/04/17 00:12:27;;;;;;;5.47;3.37;;;10.50;46.80;;;;;;5091186;28;20697;-81
2022/04/17 00:15:00;;;;;;;3.33;2.97;;;10.40;46.50;;;;;;5092314;28;20198;-81
2022/04/17 00:17:26;;;;;;;3.83;3.17;;;10.30;46.90;;;;;;5092677;28;20291;-81
2022/04/17 00:19:52;;;;;;;4.23;3.07;;;10.20;47.50;;;;;;5088159;28;20612;-81
2022/04/17 00:22:17;;;;;;;4.63;3.00;;;10.40;47.40;;;;;;5092370;28;20194;-81
2022/04/17 00:24:43;;;;;;;3.43;2.90;;;10.20;47.80;;;;;;5100658;28;20207;-81
2022/04/17 00:27:09;;;;;;;4.73;3.23;;;10.30;47.70;;;;;;5088685;28;20203;-81
2022/04/17 00:29:35;;;;;;;4.77;3.60;;;10.20;47.50;;;;;;5074383;28;20197;-81
2022/04/17 00:32:01;;;;;;;4.00;3.60;;;10.00;47.90;;;;;;5081620;28;20187;-82
2022/04/17 00:34:29;;;;;;;3.90;3.07;;;10.00;48.20;;;;;;5086602;28;20194;-81
2022/04/17 00:36:59;;;;;;;3.57;3.27;;;10.00;47.90;;;;;;5089137;28;20180;-82
2022/04/17 00:39:25;;;;;;;4.20;3.47;;;9.90;48.70;;;;;;5084096;28;20175;-80
2022/04/17 00:41:51;;;;;;;3.67;3.20;;;9.70;48.70;;;;;;5087475;28;20226;-80
2022/04/17 00:44:17;;;;;;;4.93;3.90;;;9.70;49.00;;;;;;5093696;28;20309;-80
2022/04/17 00:46:42;;;;;;;4.03;3.20;;;9.70;48.90;;;;;;5093112;28;20179;-80
2022/04/17 00:49:09;;;;;;;3.43;3.10;;;9.60;49.00;;;;;;5089388;28;20182;-80
2022/04/17 00:51:36;;;;;;;4.07;3.67;;;9.60;49.20;;;;;;5085890;28;20212;-81
2022/04/17 00:54:03;;;;;;;3.60;3.30;;;9.50;49.80;;;;;;5090406;28;20187;-81
2022/04/17 00:56:31;;;;;;;6.83;3.40;;;9.50;50.10;;;;;;5098726;28;20195;-81
2022/04/17 00:58:57;;;;;;;3.90;3.60;;;9.60;50.80;;;;;;5089013;28;20285;-80
2022/04/17 01:01:23;;;;;;;3.83;3.50;;;9.70;49.90;;;;;;5094615;28;20240;-80
2022/04/17 01:03:52;;;;;;;3.50;3.20;;;9.70;49.20;;;;;;5092656;28;20222;-81
2022/04/17 01:06:18;;;;;;;3.73;3.43;;;9.80;49.60;;;;;;5087579;28;20179;-81
2022/04/17 01:08:44;;;;;;;4.33;3.13;;;9.80;50.00;;;;;;5096297;28;20183;-82
2022/04/17 01:11:10;;;;;;;3.93;3.53;;;9.70;52.00;;;;;;5088624;28;20226;-79
2022/04/17 01:13:40;;;;;;;3.60;3.30;;;9.70;50.20;;;;;;5081954;28;20624;-82
2022/04/17 01:16:06;;;;;;;3.63;3.33;;;9.60;50.40;;;;;;5091838;28;20178;-81
2022/04/17 01:19:00;;;;;;;4.03;3.10;;;9.50;50.80;;;;;;5088271;28;20216;-81
2022/04/17 01:21:29;;;;;;;3.17;2.97;;;9.80;51.20;;;;;;5088211;28;20211;-81
2022/04/17 01:26:58;;;;;;;4.07;3.53;;;9.70;50.60;;;;;;5092260;28;20211;-81
2022/04/17 01:29:31;;;;;;;3.90;3.60;;;9.60;50.00;;;;;;5090015;28;20171;-81
2022/04/17 01:31:58;;;;;;;3.83;3.50;;;9.60;50.60;;;;;;5092754;28;20194;-80
2022/04/17 01:34:24;;;;;;;3.63;3.33;;;9.60;49.80;;;;;;5088069;28;20186;-81
2022/04/17 01:36:50;;;;;;;4.83;3.63;;;9.60;51.20;;;;;;5092253;28;20179;-80
2022/04/17 01:39:18;;;;;;;4.23;3.67;;;9.50;51.00;;;;;;5088066;28;20273;-80
2022/04/17 01:41:44;;;;;;;3.70;3.17;;;9.50;50.50;;;;;;5089743;28;20614;-81
2022/04/17 01:44:11;;;;;;;3.70;3.40;;;9.50;51.60;;;;;;5096647;28;20206;-81
2022/04/17 01:46:36;;;;;;;3.73;3.40;;;9.60;50.80;;;;;;5092329;28;20209;-80
2022/04/17 01:49:04;;;;;;;3.93;3.53;;;9.70;51.90;;;;;;5074172;28;20175;-80
2022/04/17 01:51:39;;;;;;;4.90;3.40;;;9.70;50.90;;;;;;5083331;28;20210;-81
2022/04/17 01:54:07;;;;;;;3.80;3.40;;;9.70;50.30;;;;;;5093304;28;20637;-80
2022/04/17 01:56:34;;;;;;;3.80;3.47;;;9.70;50.00;;;;;;5087912;28;20262;-80
2022/04/17 01:59:00;;;;;;;4.33;3.63;;;9.60;50.20;;;;;;5087378;28;20252;-81
2022/04/17 02:01:26;;;;;;;3.43;3.17;;;9.70;51.20;;;;;;5091307;28;20233;-81
2022/04/17 02:03:52;;;;;;;3.83;3.53;;;9.90;52.70;;;;;;5089554;28;20211;-81
2022/04/17 02:06:17;;;;;;;3.43;3.23;;;10.00;51.20;;;;;;5087524;28;20198;-81
2022/04/17 02:08:44;;;;;;;4.30;3.70;;;10.10;51.80;;;;;;5073335;28;20684;-81
2022/04/17 02:11:13;;;;;;;4.00;3.70;;;10.30;51.90;;;;;;5081442;28;20209;-81
2022/04/17 02:13:39;;;;;;;3.80;3.50;;;10.20;49.60;;;;;;5087161;28;20566;-81
2022/04/17 02:16:06;;;;;;;6.17;3.70;;;9.80;50.10;;;;;;5087084;28;20180;-81
2022/04/17 02:18:32;;;;;;;4.50;3.27;;;9.70;50.50;;;;;;5090971;28;20554;-81
2022/04/17 02:20:59;;;;;;;3.70;3.40;;;9.40;51.10;;;;;;5088406;28;20233;-81
2022/04/17 02:23:25;;;;;;;3.80;3.10;;;9.40;53.10;;;;;;5087138;28;20206;-80
2022/04/17 02:25:50;;;;;;;3.43;3.13;;;9.40;51.30;;;;;;5090417;28;20188;-80
2022/04/17 02:28:16;;;;;;;5.77;3.63;;;9.40;51.30;;;;;;5071058;28;20199;-80
2022/04/17 02:30:42;;;;;;;5.60;3.67;;;9.40;52.00;;;;;;5089497;28;20270;-81
2022/04/17 02:33:08;;;;;;;4.23;3.63;;;9.40;51.30;;;;;;5084069;28;20188;-81
2022/04/17 02:35:34;;;;;;;4.23;3.57;;;9.50;51.10;;;;;;5095401;28;20193;-79
2022/04/17 02:38:00;;;;;;;3.93;3.63;;;9.30;50.90;;;;;;5097640;28;20196;-80
2022/04/17 02:40:26;;;;;;;3.70;3.37;;;9.30;51.70;;;;;;5093856;28;20227;-82
2022/04/17 02:42:53;;;;;;;4.27;3.83;;;9.10;51.30;;;;;;5098311;28;20195;-82
2022/04/17 02:45:22;;;;;;;4.83;3.80;;;9.10;52.30;;;;;;5098298;28;20193;-82
2022/04/17 02:47:50;;;;;;;3.93;3.60;;;9.10;52.10;;;;;;5101852;28;20197;-82
2022/04/17 02:50:17;;;;;;;4.57;3.63;;;9.10;52.20;;;;;;5104037;28;20275;-81
2022/04/17 02:52:44;;;;;;;5.20;4.03;;;9.20;52.40;;;;;;5097417;28;20179;-81
2022/04/17 02:55:10;;;;;;;3.90;3.50;;;9.00;51.90;;;;;;5091765;28;20265;-81
2022/04/17 02:57:36;;;;;;;3.90;3.60;;;9.00;53.00;;;;;;5088201;28;20670;-81
2022/04/17 03:00:07;;;;;;;4.13;3.43;;;8.80;52.40;;;;;;5097792;28;20250;-81
2022/04/17 03:05:37;;;;;;;3.67;3.37;;;8.70;53.90;;;;;;5094154;28;20198;-81
2022/04/17 03:08:04;;;;;;;3.30;3.00;;;8.70;53.90;;;;;;5089353;28;20239;-81
2022/04/17 03:10:30;;;;;;;5.23;3.50;;;8.70;53.40;;;;;;5081467;28;20234;-82
2022/04/17 03:12:56;;;;;;;3.77;3.40;;;8.70;54.30;;;;;;5098987;28;20179;-82
2022/04/17 03:15:22;;;;;;;4.03;3.53;;;8.70;54.50;;;;;;5091332;28;20215;-81
2022/04/17 03:17:49;;;;;;;5.00;4.00;;;8.80;53.80;;;;;;5095123;28;20172;-81
2022/04/17 03:20:15;;;;;;;4.60;3.50;;;8.70;54.00;;;;;;5089855;28;20558;-82
2022/04/17 03:22:43;;;;;;;5.60;4.03;;;8.70;54.80;;;;;;5094006;28;20183;-81
2022/04/17 03:25:10;;;;;;;4.03;3.30;;;8.70;54.40;;;;;;5094020;28;20188;-82
2022/04/17 03:27:36;;;;;;;3.90;3.60;;;8.60;55.00;;;;;;5094694;28;20204;-82
2022/04/17 03:30:03;;;;;;;4.07;3.77;;;8.50;55.50;;;;;;5071528;28;20235;-81
2022/04/17 03:32:28;;;;;;;3.93;3.37;;;8.50;55.40;;;;;;5071040;28;20191;-81
2022/04/17 03:34:54;;;;;;;4.43;3.70;;;8.40;55.80;;;;;;5056165;28;20205;-82
2022/04/17 03:37:20;;;;;;;4.00;3.60;;;8.30;55.90;;;;;;5091066;28;20620;-83
2022/04/17 03:39:48;;;;;;;3.83;3.50;;;8.30;56.30;;;;;;5092384;28;20183;-82
2022/04/17 03:42:15;;;;;;;4.60;3.90;;;8.30;56.40;;;;;;5093905;28;20196;-81
2022/04/17 03:44:41;;;;;;;5.63;3.73;;;8.10;56.50;;;;;;5092433;28;20190;-82
2022/04/17 03:47:07;;;;;;;4.20;3.80;;;8.10;57.00;;;;;;5091511;28;20581;-82
2022/04/17 03:49:33;;;;;;;4.07;3.67;;;8.00;57.70;;;;;;5091531;28;20190;-81
2022/04/17 03:52:02;;;;;;;4.67;3.87;;;7.90;57.70;;;;;;5094315;28;20195;-81
2022/04/17 03:54:27;;;;;;;4.20;3.80;;;7.80;58.10;;;;;;5079960;28;20183;-81
2022/04/17 03:56:53;;;;;;;4.20;3.80;;;7.60;58.40;;;;;;5097719;28;20539;-81
2022/04/17 03:59:19;;;;;;;4.30;3.67;;;7.40;59.60;;;;;;5095527;28;20667;-82
2022/04/17 04:01:48;;;;;;;4.23;3.83;;;7.40;60.20;;;;;;5089720;28;20207;-82
2022/04/17 04:04:15;;;;;;;4.33;3.90;;;7.60;61.30;;;;;;5094136;28;20194;-81
2022/04/17 04:06:41;;;;;;;3.70;3.40;;;7.70;59.70;;;;;;5094043;28;20179;-81
2022/04/17 04:09:07;;;;;;;4.30;3.90;;;7.70;58.90;;;;;;5097668;28;20603;-82
2022/04/17 04:11:32;;;;;;;5.20;3.73;;;7.70;58.70;;;;;;5098481;28;20225;-81
2022/04/17 04:13:58;;;;;;;4.37;3.97;;;7.70;58.60;;;;;;5095297;28;20194;-81
2022/04/17 04:16:23;;;;;;;3.97;3.60;;;7.90;58.70;;;;;;5091981;28;20203;-81
2022/04/17 04:18:49;;;;;;;6.03;4.07;;;7.90;58.40;;;;;;5095360;28;20202;-81
2022/04/17 04:21:15;;;;;;;4.00;3.60;;;7.80;58.60;;;;;;5071199;28;20243;-81
2022/04/17 04:23:41;;;;;;;5.17;3.80;;;7.70;58.60;;;;;;5083454;28;20230;-81
2022/04/17 04:26:07;;;;;;;4.03;3.63;;;7.80;58.40;;;;;;5087910;28;20178;-81
2022/04/17 04:28:33;;;;;;;5.10;4.10;;;7.80;57.80;;;;;;5086475;28;20189;-81
2022/04/17 04:31:05;;;;;;;4.20;3.80;;;7.70;59.00;;;;;;5083196;28;20246;-81
2022/04/17 04:33:32;;;;;;;4.13;3.63;;;7.50;59.50;;;;;;5094201;28;20191;-82
2022/04/17 04:36:01;;;;;;;3.83;3.53;;;7.20;60.80;;;;;;5093747;28;20183;-81
2022/04/17 04:38:27;;;;;;;4.10;3.63;;;7.10;61.80;;;;;;5090497;28;20195;-82
2022/04/17 04:40:53;;;;;;;4.63;4.20;;;7.20;61.30;;;;;;5080626;28;20230;-81
2022/04/17 04:43:19;;;;;;;4.13;3.73;;;7.40;60.80;;;;;;5095967;28;20211;-81
2022/04/17 04:51:14;;;;;;;4.37;3.43;;;7.90;58.40;;;;;;5090601;28;20597;-82
2022/04/17 04:53:41;;;;;;;5.43;4.27;;;7.90;58.60;;;;;;5090486;28;20761;-82
2022/04/17 04:56:06;;;;;;;4.73;3.87;;;7.90;57.60;;;;;;5092692;28;20286;-81
2022/04/17 04:58:32;;;;;;;4.97;4.47;;;7.90;58.10;;;;;;5080715;28;20187;-81
2022/04/17 05:00:58;;;;;;;5.07;4.17;;;7.90;58.10;;;;;;5094374;28;20716;-81
2022/04/17 05:03:25;;;;;;;5.00;4.00;;;7.90;57.20;;;;;;5094393;28;20219;-81
2022/04/17 05:05:54;;;;;;;5.47;4.40;;;8.00;57.70;;;;;;5090667;28;20661;-81
2022/04/17 05:08:19;;;;;;;4.60;4.23;;;8.00;56.80;;;;;;5083509;28;20198;-82
2022/04/17 05:10:46;;;;;;;4.23;3.83;;;8.00;56.90;;;;;;5090171;28;20199;-81
2022/04/17 05:13:12;;;;;;;5.83;4.13;;;7.80;57.60;;;;;;5080777;28;20184;-82
2022/04/17 05:15:37;;;;;;;4.33;3.93;;;7.80;57.70;;;;;;5089693;28;20239;-81
2022/04/17 05:18:03;;;;;;;4.90;4.40;;;7.70;59.90;;;;;;5094350;28;20187;-82
2022/04/17 05:20:33;;;;;;;4.13;3.63;;;7.70;57.50;;;;;;5098267;28;20720;-81
2022/04/17 05:23:17;;;;;;;5.40;4.00;;;7.80;58.70;;;;;;5092578;28;20207;-81
2022/04/17 05:25:44;;;;;;;5.57;4.03;;;7.90;58.70;;;;;;5093292;28;20171;-82
2022/04/17 05:28:10;;;;;;;4.27;3.87;;;7.90;57.90;;;;;;5093047;28;20649;-80
2022/04/17 05:30:35;;;;;;;5.30;3.83;;;8.00;58.90;;;;;;5093992;28;20195;-81
2022/04/17 05:33:01;;;;;;;4.60;3.90;;;7.90;58.20;;;;;;5085331;28;20217;-81
2022/04/17 05:35:27;;;;;;;4.73;4.33;;;7.70;58.80;;;;;;5090083;28;20214;-81
2022/04/17 05:37:52;;;;;;;4.80;4.40;;;7.50;59.30;;;;;;5099372;28;20187;-81
2022/04/17 05:40:18;;;;;;;6.33;4.27;;;7.50;59.90;;;;;;5091455;28;20211;-82
2022/04/17 05:42:44;;;;;;;4.17;3.80;;;7.50;59.30;;;;;;5088762;28;20191;-81
2022/04/17 05:45:10;;;;;;;4.30;3.90;;;7.50;59.80;;;;;;5090731;28;20186;-81
2022/04/17 05:47:36;;;;;;;5.13;4.63;;;7.50;60.20;;;;;;5096921;28;20274;-83
2022/04/17 05:50:02;;;;;;;4.97;4.47;;;7.60;59.00;;;;;;5095841;28;20681;-81
2022/04/17 05:52:28;;;;;;;4.40;4.00;;;7.70;58.80;;;;;;5089751;28;20271;-82
2022/04/17 05:54:54;;;;;;;4.23;3.83;;;7.50;58.30;;;;;;5089069;28;20247;-81
2022/04/17 05:57:19;;;;;;;4.80;4.30;;;7.50;57.90;;;;;;5092544;28;20688;-82
2022/04/17 05:59:46;;;;;;;4.20;3.80;;;7.60;58.70;;;;;;5092268;28;20195;-82
2022/04/17 06:02:15;;;;;;;4.33;3.90;;;7.70;57.80;;;;;;5090524;28;20187;-81
2022/04/17 06:04:41;;;;;;;4.90;4.40;;;7.80;57.90;;;;;;5088270;28;20836;-81
2022/04/17 06:07:08;;;;;;;5.07;4.10;;;7.90;57.40;;;;;;5072415;28;20212;-81
2022/04/17 06:09:34;;;;;;;3.93;3.57;;;8.00;58.90;;;;;;5072892;28;20180;-82
2022/04/17 06:12:00;;;;;;;4.80;3.97;;;8.20;56.30;;;;;;5079926;28;20199;-81
2022/04/17 06:14:26;;;;;;;5.87;4.27;;;8.20;55.60;;;;;;5091560;28;20195;-82
2022/04/17 06:16:52;;;;;;;5.37;4.27;;;8.00;54.60;;;;;;5094649;28;20187;-81
2022/04/17 06:19:17;;;;;;;4.53;4.10;;;7.80;54.40;;;;;;5101504;28;20558;-81
2022/04/17 06:21:43;;;;;;;5.37;4.33;;;7.80;54.00;;;;;;5084119;28;20265;-82
2022/04/17 06:24:09;;;;;;;4.30;3.90;;;7.90;54.60;;;;;;5095205;28;20210;-82
2022/04/17 06:26:35;;;;;;;4.17;3.77;;;7.90;53.30;;;;;;5078220;28;20256;-80
2022/04/17 06:29:05;;;;;;;3.97;3.60;;;7.90;53.30;;;;;;5093230;28;20564;-81
2022/04/17 06:31:31;;;;;;;3.87;3.53;;;7.90;53.30;;;;;;5092012;28;20253;-81
2022/04/17 06:33:57;;;;;;;4.20;3.80;;;8.00;52.90;;;;;;5103451;28;20756;-81
2022/04/17 06:36:23;;;;;;;4.10;3.70;;;8.10;53.40;;;;;;5095470;28;20202;-81
2022/04/17 06:38:48;;;;;;;4.50;3.80;;;8.10;51.50;;;;;;5092350;28;20237;-82
2022/04/17 06:41:14;;;;;;;3.80;3.50;;;8.00;52.00;;;;;;5093643;28;20253;-82
2022/04/17 06:43:40;;;;;;;5.17;3.50;;;8.00;52.50;;;;;;5099927;28;20657;-82
2022/04/17 06:46:05;;;;;;;3.60;3.30;;;8.00;53.10;;;;;;5100306;28;20219;-82
2022/04/17 06:48:31;;;;;;;4.47;3.80;;;8.00;53.10;;;;;;5094418;28;20263;-82
2022/04/17 06:50:57;;;;;;;6.73;4.03;;;8.20;52.10;;;;;;5097051;28;20226;-82
2022/04/17 06:53:23;;;;;;;3.90;3.60;;;8.30;52.20;;;;;;5095054;28;20250;-80
2022/04/17 06:55:49;;;;;;;3.80;3.40;;;8.40;50.90;;;;;;5079665;28;20313;-80
2022/04/17 06:58:17;;;;;;;4.07;3.67;;;8.40;51.20;;;;;;5095820;28;20421;-81
2022/04/17 07:00:43;;;;;;;3.80;3.50;;;8.40;51.20;;;;;;5097391;28;20208;-82
2022/04/17 07:03:09;;;;;;;7.67;3.93;;;8.50;50.90;;;;;;5091928;28;20209;-81
2022/04/17 07:05:35;;;;;;;5.70;3.70;;;8.50;51.00;;;;;;5095566;28;20184;-80
2022/04/17 07:08:03;;;;;;;4.10;3.57;;;8.60;50.50;;;;;;5097464;28;20202;-81
2022/04/17 07:10:30;;;;;;;5.30;4.00;;;8.60;50.00;;;;;;5098815;28;20227;-83
2022/04/17 07:12:56;;;;;;;5.03;3.30;;;8.80;50.70;;;;;;5093256;28;20190;-81
2022/04/17 07:15:24;;;;;;;3.80;3.50;;;8.90;49.40;;;;;;5096076;28;20258;-81
2022/04/17 07:17:51;;;;;;;4.97;3.67;;;9.00;48.90;;;;;;5072718;28;20183;-81
2022/04/17 07:20:17;;;;;;;3.90;3.60;;;9.10;49.00;;;;;;5096867;28;20261;-80
2022/04/17 07:22:43;;;;;;;4.33;3.93;;;9.20;48.40;;;;;;5105033;28;20167;-80
2022/04/17 07:25:11;;;;;;;6.73;4.30;;;9.30;48.90;;;;;;5101203;28;20210;-79
2022/04/17 07:27:39;;;;;;;4.10;3.40;;;9.40;48.10;;;;;;5104959;28;20309;-80
2022/04/17 07:30:09;;;;;;;3.87;3.47;;;9.50;47.60;;;;;;5117843;28;20190;-80
2022/04/17 07:32:35;;;;;;;3.97;3.13;;;9.50;47.70;;;;;;5100379;28;20182;-80
2022/04/17 07:35:00;;;;;;;4.40;3.43;;;9.70;47.60;;;;;;5103992;28;20187;-80
2022/04/17 07:37:27;;;;;;;3.93;3.47;;;9.90;46.90;;;;;;5095830;28;20216;-81
2022/04/17 07:39:53;;;;;;;3.53;2.90;;;10.10;47.60;;;;;;5100845;28;20216;-81
2022/04/17 07:42:20;;;;;;;3.87;3.30;;;10.20;44.00;;;;;;5086955;28;20194;-80
2022/04/17 07:44:48;;;;;;;4.37;3.47;;;10.20;43.90;;;;;;5081346;28;20219;-81
2022/04/17 07:47:14;;;;;;;3.33;3.03;;;10.30;44.20;;;;;;5089537;28;20183;-81
2022/04/17 07:49:40;;;;;;;3.53;3.20;;;10.40;44.90;;;;;;5086863;28;20650;-81
2022/04/17 07:52:07;;;;;;;3.63;3.00;;;10.40;43.70;;;;;;5094746;28;20202;-81
2022/04/17 07:54:33;;;;;;;3.10;2.87;;;10.50;43.60;;;;;;5094693;28;20188;-81
2022/04/17 07:56:58;;;;;;;6.27;3.33;;;10.40;43.70;;;;;;5092809;28;20179;-82
2022/04/17 07:59:25;;;;;;;4.17;3.53;;;10.70;43.90;;;;;;5089639;28;20205;-81
2022/04/17 08:01:51;;;;;;;3.83;3.10;;;10.80;42.20;;;;;;5093597;28;20206;-82
2022/04/17 08:04:16;;;;;;;3.87;3.27;;;10.90;41.80;;;;;;5087713;28;20225;-81
2022/04/17 08:06:42;;;;;;;5.23;3.97;;;11.10;42.70;;;;;;5088161;28;20188;-82
2022/04/17 08:09:08;;;;;;;6.60;3.70;;;11.10;41.50;;;;;;5091800;28;20699;-81
2022/04/17 08:11:34;;;;;;;3.67;3.37;;;11.20;41.10;;;;;;5091719;28;20682;-81
2022/04/17 08:13:59;;;;;;;3.63;3.00;;;11.40;40.90;;;;;;5086193;28;20186;-81
2022/04/17 08:16:25;;;;;;;3.67;3.37;;;11.60;41.10;;;;;;5087617;28;20185;-81
2022/04/17 08:18:51;;;;;;;3.40;3.10;;;11.70;40.20;;;;;;5088750;28;20220;-81
2022/04/17 08:21:16;;;;;;;4.07;3.27;;;11.70;39.40;;;;;;5091313;28;20211;-81
2022/04/17 08:23:42;;;;;;;4.10;3.23;;;11.80;39.20;;;;;;5089622;28;20230;-80
2022/04/17 08:26:08;;;;;;;3.37;2.93;;;11.90;39.70;;;;;;5104053;28;20177;-82
2022/04/17 08:28:34;;;;;;;3.30;3.00;;;12.00;39.30;;;;;;5098880;28;20178;-82
2022/04/17 08:30:59;;;;;;;3.40;3.10;;;12.00;38.60;;;;;;5089568;28;20322;-82
2022/04/17 08:33:26;;;;;;;4.23;3.43;;;12.00;39.20;;;;;;5089449;28;20683;-82
2022/04/17 08:35:53;;;;;;;3.17;2.93;;;12.20;38.60;;;;;;5093957;28;20193;-81
2022/04/17 08:38:21;;;;;;;3.80;3.00;;;12.30;38.10;;;;;;5088873;28;20208;-82
2022/04/17 08:40:48;;;;;;;3.23;2.93;;;12.40;37.90;;;;;;5087799;28;20851;-81
2022/04/17 08:43:17;;;;;;;4.23;3.03;;;12.50;37.60;;;;;;5102075;28;20206;-81
2022/04/17 08:45:43;;;;;;;3.80;3.40;;;12.50;37.90;;;;;;5089172;28;20174;-80
2022/04/17 08:48:09;;;;;;;4.00;3.13;;;12.50;38.20;;;;;;5093479;28;20207;-80
2022/04/17 08:50:35;;;;;;;3.20;2.90;;;12.60;36.80;;;;;;5082723;28;20628;-82
2022/04/17 08:53:02;;;;;;;4.10;2.87;;;12.70;37.40;;;;;;5088806;28;20199;-82
2022/04/17 08:55:29;;;;;;;14.43;3.80;;;12.80;36.00;;;;;;5090421;28;20809;-81
2022/04/17 08:57:54;;;;;;;3.33;3.03;;;13.00;36.00;;;;;;5088442;28;20190;-81
2022/04/17 09:00:20;;;;;;;3.20;2.90;;;13.10;35.60;;;;;;5094051;28;20801;-82
2022/04/17 09:02:47;;;;;;;4.03;2.93;;;13.30;35.60;;;;;;5086605;28;20189;-81
2022/04/17 09:05:18;;;;;;;3.07;2.80;;;13.40;35.70;;;;;;5079783;28;20217;-81
2022/04/17 09:07:47;;;;;;;3.30;3.00;;;13.30;35.20;;;;;;5073508;28;20255;-81
2022/04/17 09:10:32;;;;;;;3.77;3.47;;;13.20;34.90;;;;;;5092483;28;20208;-81
2022/04/17 09:13:00;;;;;;;5.10;2.90;;;13.20;34.50;;;;;;5090612;28;20217;-81
2022/04/17 09:15:31;;;;;;;4.33;2.93;;;13.30;34.70;;;;;;5073956;28;20291;-81
2022/04/17 09:17:58;;;;;;;3.07;2.70;;;13.50;33.80;;;;;;5090230;28;20223;-82
2022/04/17 09:20:26;;;;;;;3.40;3.00;;;13.60;33.60;;;;;;5091303;28;20214;-81
2022/04/17 09:22:54;;;;;;;3.20;2.40;;;13.70;33.70;;;;;;5076600;28;20323;-82
2022/04/17 09:25:24;;;;;;;2.63;2.43;;;13.80;32.50;;;;;;5097361;28;20709;-81
2022/04/17 09:28:01;;;;;;;3.20;3.00;;;14.00;32.10;;;;;;5091408;28;20182;-81
2022/04/17 09:30:39;;;;;;;3.60;2.83;;;14.10;32.10;;;;;;5095553;28;20764;-81
2022/04/17 09:33:09;;;;;;;2.53;2.30;;;14.30;31.00;;;;;;5094953;28;20198;-81
2022/04/17 09:35:35;;;;;;;3.07;2.80;;;14.20;30.30;;;;;;5089900;28;20180;-81
2022/04/17 09:38:04;;;;;;;3.00;2.67;;;14.30;30.00;;;;;;5098004;28;20201;-81
2022/04/17 09:40:31;;;;;;;4.83;2.90;;;14.80;30.30;;;;;;5079584;28;20233;-81
2022/04/17 09:43:11;;;;;;;2.70;2.50;;;15.10;28.60;;;;;;5091191;28;20199;-81
2022/04/17 09:46:01;;;;;;;6.17;2.50;;;15.30;28.30;;;;;;5093834;28;20205;-80
2022/04/17 09:48:34;;;;;;;5.07;3.17;;;15.30;28.60;;;;;;5084682;28;20230;-82
2022/04/17 09:51:01;;;;;;;2.33;2.20;;;15.20;29.00;;;;;;5096622;28;20226;-81
2022/04/17 09:53:31;;;;;;;4.00;2.50;;;15.40;29.30;;;;;;5086595;28;20195;-81
2022/04/17 09:56:07;;;;;;;2.90;2.60;;;15.60;28.70;;;;;;5093289;28;20248;-81
2022/04/17 09:58:45;;;;;;;3.30;2.93;;;15.80;29.20;;;;;;5100810;28;20190;-81
2022/04/17 10:01:15;;;;;;;7.73;2.90;;;15.60;29.20;;;;;;5097455;28;20760;-81
2022/04/17 10:03:42;;;;;;;2.77;2.57;;;15.50;29.30;;;;;;5093466;28;20215;-81
2022/04/17 10:06:11;;;;;;;3.33;3.03;;;15.70;29.80;;;;;;5100560;28;20290;-80
2022/04/17 10:08:39;;;;;;;3.00;2.80;;;15.80;29.10;;;;;;5093831;28;20262;-81
2022/04/17 10:11:06;;;;;;;3.03;2.80;;;15.70;29.40;;;;;;5095115;28;20200;-80
2022/04/17 10:13:35;;;;;;;6.47;2.77;;;15.70;29.80;;;;;;5094654;28;20318;-80
2022/04/17 10:16:03;;;;;;;2.80;2.60;;;16.00;30.00;;;;;;5095012;28;20200;-81
2022/04/17 10:18:34;;;;;;;3.63;2.73;;;16.30;30.00;;;;;;5112375;28;20264;-81
2022/04/17 10:21:01;;;;;;;2.90;2.47;;;16.50;29.40;;;;;;5083239;28;20302;-82
2022/04/17 10:23:29;;;;;;;4.27;2.50;;;16.90;28.70;;;;;;5095028;28;20692;-81
2022/04/17 10:25:58;;;;;;;3.57;2.77;;;16.90;27.60;;;;;;5093697;28;20203;-80
2022/04/17 10:28:27;;;;;;;9.90;2.60;;;17.00;27.90;;;;;;5093788;28;20190;-82
2022/04/17 10:31:20;;;;;;;4.27;3.17;;;17.00;27.80;;;;;;5096209;28;20214;-82
2022/04/17 10:34:23;;;;;;;3.10;2.80;;;17.30;27.40;;;;;;5091957;28;20194;-82
2022/04/17 10:37:26;;;;;;;2.90;2.70;;;16.90;27.90;;;;;;5097287;28;20190;-81
2022/04/17 10:39:57;;;;;;;2.80;2.60;;;17.40;28.10;;;;;;5102947;28;20234;-82
2022/04/17 10:42:36;;;;;;;4.30;3.90;;;17.60;27.80;;;;;;5093567;28;20271;-81
2022/04/17 10:45:09;;;;;;;2.97;2.60;;;17.80;27.50;;;;;;5092901;28;20213;-81
2022/04/17 10:47:34;;;;;;;3.10;2.57;;;17.60;27.00;;;;;;5093973;28;20682;-82
2022/04/17 10:50:07;;;;;;;3.20;2.90;;;17.70;27.00;;;;;;5092431;28;20272;-82
2022/04/17 10:52:37;;;;;;;2.60;2.30;;;17.80;27.00;;;;;;5096207;28;20562;-82
2022/04/17 10:55:10;;;;;;;4.73;2.73;;;18.00;26.90;;;;;;5099778;28;20191;-83
2022/04/17 10:57:47;;;;;;;3.63;2.63;;;17.90;26.60;;;;;;5095730;28;20197;-82
2022/04/17 11:00:32;;;;;;;2.57;2.37;;;18.20;27.50;;;;;;5091715;28;20705;-80
2022/04/17 11:03:01;;;;;;;3.37;2.60;;;18.80;27.00;;;;;;5094498;28;20186;-82
2022/04/17 11:08:26;;;;;;;2.40;2.20;;;18.70;27.60;;;;;;5091807;28;20216;-82
2022/04/17 11:10:54;;;;;;;3.73;2.37;;;18.50;26.70;;;;;;5105047;28;20198;-82
2022/04/17 11:13:23;;;;;;;2.53;2.33;;;18.70;26.70;;;;;;5086786;28;20324;-82
2022/04/17 11:15:54;;;;;;;3.00;2.70;;;18.60;26.90;;;;;;5116792;28;20189;-82
2022/04/17 11:18:24;;;;;;;3.00;2.70;;;19.20;27.30;;;;;;5089298;28;20530;-81
2022/04/17 11:20:54;;;;;;;2.70;2.50;;;19.10;26.60;;;;;;5092639;28;20210;-82
2022/04/17 11:23:48;;;;;;;3.10;2.60;;;19.20;26.80;;;;;;5095839;28;20237;-81
2022/04/17 11:26:14;;;;;;;5.87;2.80;;;19.50;26.70;;;;;;5100183;28;20599;-81
2022/04/17 11:28:40;;;;;;;3.23;2.30;;;19.10;26.40;;;;;;5081724;28;20685;-81
2022/04/17 11:31:06;;;;;;;2.60;2.40;;;18.80;26.70;;;;;;5077728;28;20210;-82
2022/04/17 11:33:31;;;;;;;3.07;2.63;;;19.30;25.70;;;;;;5096185;28;20196;-82
2022/04/17 11:35:58;;;;;;;2.60;2.40;;;19.30;25.70;;;;;;5095104;28;20199;-82
2022/04/17 11:38:24;;;;;;;5.03;2.47;;;19.40;26.00;;;;;;5091331;28;20186;-84
2022/04/17 11:40:50;;;;;;;2.90;2.50;;;19.00;25.70;;;;;;5090513;28;20250;-82
2022/04/17 11:43:17;;;;;;;2.73;2.10;;;19.20;26.10;;;;;;5096388;28;20212;-82
2022/04/17 11:45:44;;;;;;;2.30;2.20;;;19.30;25.60;;;;;;5097263;28;20187;-82
2022/04/17 11:48:18;;;;;;;2.87;2.67;;;19.40;25.80;;;;;;5096084;28;20187;-82
2022/04/17 11:50:44;;;;;;;4.87;2.60;;;19.40;25.20;;;;;;5087449;28;20263;-82
2022/04/17 11:53:14;;;;;;;2.53;2.10;;;19.20;25.20;;;;;;5084574;28;20290;-82
2022/04/17 11:55:42;;;;;;;2.77;2.57;;;19.30;25.90;;;;;;5090547;28;20279;-82
2022/04/17 11:58:21;;;;;;;2.70;2.50;;;19.60;25.30;;;;;;5094876;28;20192;-84
2022/04/17 12:00:57;;;;;;;3.47;2.40;;;20.10;25.30;;;;;;5090638;28;20211;-82
2022/04/17 12:03:36;;;;;;;3.42;2.45;;;19.90;25.10;;;;;;5075829;28;20287;-82
2022/04/17 12:06:03;;;;;;;3.05;2.75;;;19.90;25.40;;;;;;5088010;28;20213;-82
2022/04/17 12:08:40;;;;;;;2.75;2.55;;;19.90;25.30;;;;;;5094792;28;20183;-81
2022/04/17 12:11:29;;;;;;;2.50;2.30;;;20.30;24.90;;;;;;5097754;28;20195;-82
2022/04/17 12:13:55;;;;;;;3.40;2.30;;;20.90;23.90;;;;;;5076606;28;20193;-81
2022/04/17 12:16:20;;;;;;;4.07;2.88;;;21.10;24.80;;;;;;5094243;28;20183;-83
2022/04/17 12:18:55;;;;;;;2.92;2.67;;;21.20;24.50;;;;;;5096905;28;20714;-82
2022/04/17 12:21:28;;;;;;;3.63;3.33;;;21.50;24.30;;;;;;5098488;28;20198;-82
2022/04/17 12:23:55;;;;;;;5.07;3.90;;;22.10;23.90;;;;;;5098609;28;20214;-81
2022/04/17 12:26:21;;;;;;;2.60;2.40;;;21.70;24.20;;;;;;5090571;28;20180;-81
2022/04/17 12:28:47;;;;;;;2.92;2.33;;;21.40;24.10;;;;;;5094396;28;20179;-81
2022/04/17 12:31:14;;;;;;;2.85;2.65;;;21.30;24.40;;;;;;5093667;28;20210;-81
2022/04/17 12:33:40;;;;;;;3.80;3.00;;;21.80;24.20;;;;;;5075400;28;20183;-81
2022/04/17 12:36:12;;;;;;;3.58;2.63;;;21.80;24.10;;;;;;5089331;28;20182;-81
2022/04/17 12:38:40;;;;;;;3.10;2.80;;;21.90;24.40;;;;;;5096250;28;20246;-81
2022/04/17 12:41:22;;;;;;;2.78;2.50;;;21.70;23.90;;;;;;5097582;28;20213;-81
2022/04/17 12:43:49;;;;;;;2.92;2.65;;;21.50;24.10;;;;;;5094527;28;20256;-83
2022/04/17 12:46:26;;;;;;;3.70;3.03;;;21.70;24.20;;;;;;5094707;28;20186;-82
2022/04/17 12:49:07;;;;;;;3.03;2.72;;;22.40;24.60;;;;;;5089346;28;20174;-82
2022/04/17 12:51:34;;;;;;;2.75;2.55;;;21.80;23.70;;;;;;5097672;28;20199;-81
2022/04/17 12:54:01;;;;;;;3.78;3.30;;;22.00;24.60;;;;;;5092327;28;20655;-81
2022/04/17 12:56:27;;;;;;;2.83;2.47;;;22.00;23.90;;;;;;5093462;28;20184;-81
2022/04/17 12:58:59;;;;;;;2.60;2.40;;;22.30;23.60;;;;;;5088093;28;20188;-81
2022/04/17 13:01:29;;;;;;;2.60;2.40;;;22.40;23.30;;;;;;5093867;28;20206;-81
2022/04/17 13:04:19;;;;;;;4.38;2.60;;;23.00;22.60;;;;;;5086158;28;20558;-82
2022/04/17 13:06:46;;;;;;;3.88;2.60;;;22.70;23.10;;;;;;5097667;28;20181;-81
2022/04/17 13:09:18;;;;;;;2.92;2.60;;;23.10;23.10;;;;;;5091656;28;20207;-81
2022/04/17 13:11:49;;;;;;;2.90;2.60;;;22.90;22.70;;;;;;5095350;28;20228;-81